Time;durP1;ratioP1;P1;durP2;ratioP2;P2;SDS_P1;SDS_P2;PMS_P1;PMS_P2;Temp;Humidity;BMP_temperature;BMP_pressure;BME280_temperature;BME280_humidity;BME280_pressure;Samples;Min_cycle;Max_cycle;Signal;HPM_P1;HPM_P2
2023/12/31 00:00:25;;;;;;;5.80;4.30;;;9.90;99.90;;;;;;5036159;28;20254;-86
2023/12/31 00:02:52;;;;;;;7.47;4.85;;;9.90;99.90;;;;;;5035600;28;20225;-86
2023/12/31 00:05:19;;;;;;;5.68;3.40;;;9.90;99.90;;;;;;5035773;28;20236;-86
2023/12/31 00:07:49;;;;;;;7.47;4.15;;;9.90;99.90;;;;;;5036650;28;20232;-78
2023/12/31 00:10:38;;;;;;;5.07;4.20;;;9.90;99.90;;;;;;5035460;28;20608;-86
2023/12/31 00:13:06;;;;;;;6.22;4.00;;;9.80;99.90;;;;;;5029006;28;20244;-78
2023/12/31 00:15:33;;;;;;;7.18;4.80;;;9.90;99.90;;;;;;5035449;28;20233;-79
2023/12/31 00:18:00;;;;;;;4.40;3.97;;;9.90;99.90;;;;;;5033559;28;20221;-80
2023/12/31 00:20:30;;;;;;;5.88;3.83;;;9.90;99.90;;;;;;5036636;28;20233;-87
2023/12/31 00:22:57;;;;;;;6.72;3.25;;;9.80;99.90;;;;;;5031768;28;20217;-87
2023/12/31 00:25:24;;;;;;;6.05;3.30;;;9.90;99.90;;;;;;5035428;28;20308;-80
2023/12/31 00:27:53;;;;;;;4.95;4.47;;;9.90;99.90;;;;;;5035829;28;20221;-86
2023/12/31 00:30:21;;;;;;;3.17;2.97;;;9.90;99.90;;;;;;5036385;28;20243;-87
2023/12/31 00:32:51;;;;;;;5.80;4.85;;;9.90;99.90;;;;;;5036512;28;20252;-86
2023/12/31 00:35:19;;;;;;;7.45;4.95;;;9.90;99.90;;;;;;5034401;28;20251;-78
2023/12/31 00:37:46;;;;;;;6.05;3.85;;;9.90;99.90;;;;;;5032906;28;20229;-79
2023/12/31 00:40:14;;;;;;;5.05;4.45;;;9.90;99.90;;;;;;5033606;28;20236;-78
2023/12/31 00:42:41;;;;;;;5.82;3.95;;;9.90;99.90;;;;;;5032569;28;20531;-79
2023/12/31 00:45:10;;;;;;;9.43;5.18;;;9.90;99.90;;;;;;5034417;28;20229;-86
2023/12/31 00:47:37;;;;;;;7.15;5.57;;;9.90;99.90;;;;;;5036991;28;20248;-86
2023/12/31 00:50:08;;;;;;;8.02;5.22;;;9.90;99.90;;;;;;5030103;28;20221;-85
2023/12/31 00:52:35;;;;;;;6.97;4.30;;;9.90;99.90;;;;;;5037590;28;20248;-86
2023/12/31 00:55:02;;;;;;;8.50;4.65;;;9.90;99.90;;;;;;5037657;28;20617;-86
2023/12/31 00:57:31;;;;;;;5.70;3.20;;;9.90;99.90;;;;;;5043941;28;20201;-86
2023/12/31 00:59:58;;;;;;;7.90;3.40;;;9.90;99.90;;;;;;5034885;28;20226;-86
2023/12/31 01:02:27;;;;;;;6.80;4.00;;;9.90;99.90;;;;;;5041666;28;20240;-86
2023/12/31 01:04:54;;;;;;;4.90;4.05;;;9.80;99.90;;;;;;5040774;28;20233;-85
2023/12/31 01:07:21;;;;;;;8.95;4.75;;;9.80;99.90;;;;;;5047179;28;20236;-86
2023/12/31 01:09:48;;;;;;;4.90;3.90;;;9.80;99.90;;;;;;5046212;28;20607;-85
2023/12/31 01:12:22;;;;;;;3.80;3.40;;;9.80;99.90;;;;;;5030835;28;20649;-80
2023/12/31 01:14:51;;;;;;;8.93;4.10;;;9.70;99.90;;;;;;5039075;28;20715;-79
2023/12/31 01:17:18;;;;;;;4.43;4.03;;;9.70;99.90;;;;;;5041171;28;20221;-86
2023/12/31 01:19:47;;;;;;;6.85;4.57;;;9.60;99.90;;;;;;5046981;28;20311;-86
2023/12/31 01:22:16;;;;;;;7.47;3.80;;;9.60;99.90;;;;;;5043068;28;20244;-86
2023/12/31 01:24:42;;;;;;;10.18;5.13;;;9.60;99.90;;;;;;5035621;28;20259;-79
2023/12/31 01:27:13;;;;;;;9.85;4.47;;;9.50;99.90;;;;;;5047567;28;20221;-86
2023/12/31 01:29:42;;;;;;;8.48;3.97;;;9.50;99.90;;;;;;5047372;28;20237;-86
2023/12/31 01:32:12;;;;;;;8.73;4.78;;;9.50;99.90;;;;;;5038354;28;20225;-86
2023/12/31 01:34:39;;;;;;;4.78;4.25;;;9.40;99.90;;;;;;5044504;28;20221;-86
2023/12/31 01:37:08;;;;;;;7.65;5.00;;;9.40;99.90;;;;;;5044262;28;21836;-85
2023/12/31 01:39:36;;;;;;;5.55;3.88;;;9.40;99.90;;;;;;5047118;28;20233;-87
2023/12/31 01:42:04;;;;;;;9.13;4.30;;;9.40;99.90;;;;;;5045992;28;20236;-86
2023/12/31 01:44:31;;;;;;;9.65;4.50;;;9.30;99.90;;;;;;5047305;28;20229;-86
2023/12/31 01:46:58;;;;;;;8.20;4.47;;;9.30;99.90;;;;;;5044404;28;20228;-85
2023/12/31 01:49:26;;;;;;;5.60;3.85;;;9.20;99.90;;;;;;5038328;28;20233;-84
2023/12/31 01:51:54;;;;;;;4.15;3.42;;;9.20;99.90;;;;;;5046555;28;20236;-79
2023/12/31 01:54:22;;;;;;;5.72;4.55;;;9.20;99.90;;;;;;5037213;28;20753;-79
2023/12/31 01:56:51;;;;;;;5.80;3.63;;;9.20;99.90;;;;;;5038459;28;20239;-83
2023/12/31 01:59:19;;;;;;;6.68;3.90;;;9.20;99.90;;;;;;5047098;28;20221;-79
2023/12/31 02:01:48;;;;;;;4.78;3.28;;;9.20;99.90;;;;;;5036484;28;20237;-79
2023/12/31 02:04:15;;;;;;;5.13;3.67;;;9.20;99.90;;;;;;5035990;28;20225;-79
2023/12/31 02:06:42;;;;;;;8.13;3.35;;;9.10;99.90;;;;;;5036825;28;20232;-79
2023/12/31 02:09:09;;;;;;;4.40;3.75;;;9.10;99.90;;;;;;5037851;28;20289;-80
2023/12/31 02:11:38;;;;;;;5.03;3.45;;;9.20;99.90;;;;;;5037895;28;20554;-79
2023/12/31 02:14:06;;;;;;;7.38;3.65;;;9.20;99.90;;;;;;5036379;28;20301;-79
2023/12/31 02:16:33;;;;;;;9.57;3.80;;;9.20;99.90;;;;;;5036120;28;20225;-79
2023/12/31 02:19:00;;;;;;;4.65;3.83;;;9.20;99.90;;;;;;5035871;28;20562;-79
2023/12/31 02:21:29;;;;;;;5.55;3.55;;;9.10;99.90;;;;;;5042500;28;20244;-78
2023/12/31 02:23:58;;;;;;;7.05;3.38;;;9.10;99.90;;;;;;5028667;28;20230;-79
2023/12/31 02:26:27;;;;;;;9.77;4.47;;;9.10;99.90;;;;;;5053959;28;20225;-78
2023/12/31 02:28:54;;;;;;;4.85;3.20;;;9.10;99.90;;;;;;5040345;28;20229;-85
2023/12/31 02:31:21;;;;;;;4.03;3.30;;;9.10;99.90;;;;;;5048578;28;20231;-85
2023/12/31 02:33:48;;;;;;;10.40;4.70;;;9.10;99.90;;;;;;5046429;28;20291;-79
2023/12/31 02:36:15;;;;;;;5.65;3.42;;;9.00;99.90;;;;;;5040789;28;20240;-77
2023/12/31 02:38:42;;;;;;;8.90;3.42;;;9.10;99.90;;;;;;5042775;28;20248;-85
2023/12/31 02:41:09;;;;;;;6.38;3.40;;;9.10;99.90;;;;;;5046293;28;20285;-78
2023/12/31 02:43:38;;;;;;;7.25;3.67;;;9.00;99.90;;;;;;5038236;28;20229;-78
2023/12/31 02:46:05;;;;;;;6.25;2.95;;;9.00;99.90;;;;;;5047250;28;20630;-78
2023/12/31 02:48:33;;;;;;;8.05;4.40;;;9.00;99.90;;;;;;5037337;28;20534;-78
2023/12/31 02:51:00;;;;;;;3.40;2.67;;;8.90;99.90;;;;;;5037270;28;20743;-77
2023/12/31 02:53:30;;;;;;;4.93;2.85;;;8.90;99.90;;;;;;5038007;28;20225;-78
2023/12/31 02:56:00;;;;;;;7.43;3.50;;;8.90;99.90;;;;;;5037286;28;20229;-78
2023/12/31 02:58:27;;;;;;;5.38;3.45;;;8.90;99.90;;;;;;5038339;28;20316;-85
2023/12/31 03:00:55;;;;;;;5.00;3.78;;;8.80;99.90;;;;;;5042660;28;20224;-86
2023/12/31 03:03:23;;;;;;;5.22;3.13;;;8.80;99.90;;;;;;5041325;28;20677;-85
2023/12/31 03:05:50;;;;;;;4.05;3.58;;;8.80;99.90;;;;;;5039198;28;20282;-78
2023/12/31 03:08:17;;;;;;;4.47;3.38;;;8.70;99.90;;;;;;5038188;28;20233;-85
2023/12/31 03:10:44;;;;;;;6.88;3.00;;;8.70;99.90;;;;;;5034513;28;20256;-78
2023/12/31 03:13:11;;;;;;;6.93;3.30;;;8.70;99.90;;;;;;5034951;28;20715;-78
2023/12/31 03:15:38;;;;;;;4.60;3.55;;;8.70;99.90;;;;;;5041420;28;20233;-85
2023/12/31 03:18:06;;;;;;;3.75;3.10;;;8.70;99.90;;;;;;5042252;28;20232;-84
2023/12/31 03:20:33;;;;;;;6.75;2.92;;;8.70;99.90;;;;;;5045212;28;20235;-85
2023/12/31 03:23:11;;;;;;;4.75;3.50;;;8.70;99.90;;;;;;5039047;28;20314;-78
2023/12/31 03:25:38;;;;;;;3.83;3.40;;;8.70;99.90;;;;;;5039619;28;20229;-78
2023/12/31 03:28:06;;;;;;;7.07;4.10;;;8.70;99.90;;;;;;5037679;28;20233;-85
2023/12/31 03:30:33;;;;;;;4.28;3.88;;;8.70;99.90;;;;;;5045533;28;20284;-86
2023/12/31 03:33:03;;;;;;;4.32;3.55;;;8.70;99.90;;;;;;5037972;28;20712;-78
2023/12/31 03:35:31;;;;;;;5.20;4.07;;;8.70;99.90;;;;;;5035243;28;20233;-78
2023/12/31 03:37:58;;;;;;;7.63;3.25;;;8.70;99.90;;;;;;5035436;28;20711;-78
2023/12/31 03:40:26;;;;;;;5.53;3.15;;;8.70;99.90;;;;;;5043625;28;20244;-85
2023/12/31 03:42:53;;;;;;;3.90;2.88;;;8.70;99.90;;;;;;5046732;28;20233;-85
2023/12/31 03:45:21;;;;;;;9.50;4.20;;;8.60;99.90;;;;;;5039838;28;20221;-78
2023/12/31 03:47:51;;;;;;;7.32;3.90;;;8.60;99.90;;;;;;5042309;28;20232;-78
2023/12/31 03:50:20;;;;;;;4.47;3.95;;;8.60;99.90;;;;;;5034904;28;20248;-78
2023/12/31 03:52:49;;;;;;;4.50;3.28;;;8.60;99.90;;;;;;5034055;28;20308;-78
2023/12/31 03:55:16;;;;;;;5.93;3.63;;;8.60;99.90;;;;;;5045060;28;20687;-85
2023/12/31 03:57:46;;;;;;;4.13;3.70;;;8.50;99.90;;;;;;5039652;28;20418;-78
2023/12/31 04:00:14;;;;;;;6.63;4.50;;;8.50;99.90;;;;;;5034734;28;20221;-78
2023/12/31 04:02:41;;;;;;;6.25;4.07;;;8.50;99.90;;;;;;5034395;28;20232;-78
2023/12/31 04:05:08;;;;;;;3.47;3.15;;;8.50;99.90;;;;;;5038041;28;20272;-85
2023/12/31 04:07:39;;;;;;;5.93;4.22;;;8.50;99.90;;;;;;5037354;28;20299;-78
2023/12/31 04:10:08;;;;;;;8.73;4.45;;;8.40;99.90;;;;;;5034767;28;20255;-78
2023/12/31 04:12:35;;;;;;;6.75;3.80;;;8.40;99.90;;;;;;5036761;28;20241;-84
2023/12/31 04:15:02;;;;;;;6.80;4.32;;;8.40;99.90;;;;;;5047132;28;20233;-85
2023/12/31 04:17:29;;;;;;;7.53;3.72;;;8.40;99.90;;;;;;5048128;28;20217;-77
2023/12/31 04:19:56;;;;;;;4.05;3.47;;;8.30;99.90;;;;;;5048761;28;20272;-86
2023/12/31 04:22:23;;;;;;;5.15;4.30;;;8.30;99.90;;;;;;5051250;28;20233;-86
2023/12/31 04:24:50;;;;;;;6.07;3.90;;;8.30;99.90;;;;;;5046343;28;20244;-85
2023/12/31 04:27:19;;;;;;;4.63;3.85;;;8.30;99.90;;;;;;5041753;28;20216;-78
2023/12/31 04:29:47;;;;;;;4.82;3.65;;;8.20;99.90;;;;;;5039286;28;20233;-85
2023/12/31 04:32:14;;;;;;;5.78;4.50;;;8.20;99.90;;;;;;5048702;28;20240;-85
2023/12/31 04:34:41;;;;;;;4.80;3.70;;;8.10;99.90;;;;;;5048614;28;20225;-84
2023/12/31 04:37:08;;;;;;;4.95;3.75;;;8.10;99.90;;;;;;5052765;28;20217;-84
2023/12/31 04:39:37;;;;;;;8.00;4.30;;;8.10;99.90;;;;;;5054152;28;20221;-85
2023/12/31 04:42:07;;;;;;;8.55;4.10;;;8.10;99.90;;;;;;5040413;28;20225;-78
2023/12/31 04:44:35;;;;;;;6.25;4.20;;;8.10;99.90;;;;;;5038672;28;20237;-78
2023/12/31 04:47:02;;;;;;;4.78;3.65;;;8.10;99.90;;;;;;5040921;28;20217;-78
2023/12/31 04:49:29;;;;;;;6.53;3.78;;;8.10;99.90;;;;;;5041558;28;20224;-78
2023/12/31 04:51:56;;;;;;;5.68;3.63;;;8.10;99.90;;;;;;5037132;28;20248;-78
2023/12/31 04:54:23;;;;;;;4.22;3.63;;;8.20;99.90;;;;;;5042366;28;20232;-86
2023/12/31 04:56:50;;;;;;;8.43;4.55;;;8.20;99.90;;;;;;5040456;28;20240;-86
2023/12/31 04:59:17;;;;;;;3.97;3.53;;;8.10;99.90;;;;;;5044422;28;20217;-86
2023/12/31 05:01:52;;;;;;;5.15;3.70;;;8.10;99.90;;;;;;5048192;28;20256;-85
2023/12/31 05:04:22;;;;;;;7.63;4.43;;;8.10;99.90;;;;;;5040937;28;20224;-78
2023/12/31 05:06:49;;;;;;;14.27;4.97;;;8.10;99.90;;;;;;5037616;28;20221;-78
2023/12/31 05:09:16;;;;;;;5.00;4.50;;;8.10;99.90;;;;;;5037403;28;20322;-79
2023/12/31 05:11:44;;;;;;;13.75;4.25;;;8.10;99.90;;;;;;5035616;28;20235;-78
2023/12/31 05:14:11;;;;;;;3.70;3.40;;;8.10;99.90;;;;;;5044851;28;20217;-78
2023/12/31 05:16:38;;;;;;;8.18;3.80;;;8.10;99.90;;;;;;5037967;28;20220;-79
2023/12/31 05:19:07;;;;;;;6.47;4.55;;;8.10;99.90;;;;;;5036748;28;20308;-79
2023/12/31 05:21:39;;;;;;;4.18;3.78;;;8.10;99.90;;;;;;5040336;28;20576;-78
2023/12/31 05:24:06;;;;;;;6.35;4.07;;;8.10;99.90;;;;;;5049612;28;20229;-79
2023/12/31 05:26:33;;;;;;;4.95;4.10;;;8.10;99.90;;;;;;5040928;28;20564;-78
2023/12/31 05:29:00;;;;;;;5.25;4.45;;;8.20;99.90;;;;;;5051129;28;20217;-85
2023/12/31 05:31:27;;;;;;;7.95;3.90;;;8.10;99.90;;;;;;5045260;28;20707;-78
2023/12/31 05:33:55;;;;;;;8.10;5.30;;;8.10;99.90;;;;;;5036326;28;20241;-85
2023/12/31 05:36:23;;;;;;;5.05;4.18;;;8.10;99.90;;;;;;5041505;28;20287;-86
2023/12/31 05:38:50;;;;;;;5.63;4.03;;;8.00;99.90;;;;;;5038870;28;20239;-85
2023/12/31 05:41:17;;;;;;;7.82;4.20;;;8.00;99.90;;;;;;5041648;28;20585;-85
2023/12/31 05:43:44;;;;;;;5.05;3.72;;;8.00;99.90;;;;;;5043904;28;20233;-86
2023/12/31 05:46:11;;;;;;;4.60;3.80;;;7.90;99.90;;;;;;5036239;28;20264;-78
2023/12/31 05:48:39;;;;;;;7.28;3.80;;;8.00;99.90;;;;;;5036283;28;20233;-78
2023/12/31 05:51:06;;;;;;;6.57;4.20;;;8.00;99.90;;;;;;5040313;28;20225;-78
2023/12/31 05:53:35;;;;;;;4.90;4.20;;;8.00;99.90;;;;;;5036974;28;20240;-79
2023/12/31 05:56:02;;;;;;;3.70;3.35;;;7.90;99.90;;;;;;5039153;28;20271;-78
2023/12/31 05:58:29;;;;;;;7.10;4.68;;;7.90;99.90;;;;;;5048460;28;20233;-85
2023/12/31 06:00:58;;;;;;;8.15;4.15;;;7.90;99.90;;;;;;5047194;28;20222;-79
2023/12/31 06:03:25;;;;;;;5.97;4.35;;;7.90;99.90;;;;;;5036472;28;20243;-78
2023/12/31 06:05:52;;;;;;;4.88;4.30;;;7.80;99.90;;;;;;5035954;28;20233;-78
2023/12/31 06:08:19;;;;;;;4.40;3.85;;;7.90;99.90;;;;;;5038708;28;20221;-78
2023/12/31 06:10:47;;;;;;;3.80;3.50;;;7.90;99.90;;;;;;5035371;28;20668;-78
2023/12/31 06:13:14;;;;;;;5.20;3.72;;;7.90;99.90;;;;;;5035381;28;20244;-79
2023/12/31 06:15:41;;;;;;;7.35;3.85;;;8.00;99.90;;;;;;5043076;28;20212;-79
2023/12/31 06:18:08;;;;;;;9.18;4.05;;;8.00;99.90;;;;;;5037280;28;20569;-86
2023/12/31 06:20:37;;;;;;;4.68;3.78;;;8.00;99.90;;;;;;5039552;28;20230;-86
2023/12/31 06:23:04;;;;;;;8.38;4.05;;;8.00;99.90;;;;;;5038298;28;20233;-85
2023/12/31 06:25:34;;;;;;;7.88;4.25;;;8.00;99.90;;;;;;5039311;28;20229;-86
2023/12/31 06:28:05;;;;;;;5.63;4.10;;;8.00;99.90;;;;;;5037636;28;20233;-80
2023/12/31 06:30:32;;;;;;;4.00;3.63;;;8.00;99.90;;;;;;5035638;28;20229;-78
2023/12/31 06:32:59;;;;;;;4.93;3.95;;;8.00;99.90;;;;;;5035519;28;20320;-78
2023/12/31 06:35:27;;;;;;;3.22;2.92;;;8.00;99.90;;;;;;5035904;28;20226;-78
2023/12/31 06:37:54;;;;;;;5.45;3.65;;;8.00;99.90;;;;;;5035730;28;20557;-78
2023/12/31 06:40:21;;;;;;;3.10;2.80;;;8.00;99.90;;;;;;5040539;28;20217;-86
2023/12/31 06:42:50;;;;;;;6.22;4.10;;;8.00;99.90;;;;;;5051500;28;20229;-85
2023/12/31 06:45:19;;;;;;;4.00;3.60;;;8.00;99.90;;;;;;5053640;28;20717;-86
2023/12/31 06:47:46;;;;;;;3.72;3.42;;;8.00;99.90;;;;;;5051355;28;20229;-85
2023/12/31 06:50:13;;;;;;;5.18;4.38;;;8.00;99.90;;;;;;5053331;28;20281;-85
2023/12/31 06:52:40;;;;;;;3.90;3.60;;;8.00;99.90;;;;;;5051935;28;20229;-86
2023/12/31 06:55:12;;;;;;;4.65;3.78;;;8.00;99.90;;;;;;5050893;28;20225;-85
2023/12/31 06:57:39;;;;;;;4.60;2.83;;;8.00;99.90;;;;;;5038410;28;20263;-78
2023/12/31 07:00:08;;;;;;;5.10;3.65;;;8.00;99.90;;;;;;5034674;28;20624;-78
2023/12/31 07:02:37;;;;;;;4.88;3.35;;;8.00;99.90;;;;;;5035355;28;20692;-78
2023/12/31 07:05:05;;;;;;;4.32;3.78;;;8.00;99.90;;;;;;5044871;28;20232;-85
2023/12/31 07:07:32;;;;;;;3.45;2.80;;;8.00;99.90;;;;;;5044876;28;20233;-86
2023/12/31 07:09:58;;;;;;;3.60;3.30;;;8.00;99.90;;;;;;5050822;28;20225;-85
2023/12/31 07:12:25;;;;;;;4.97;3.40;;;8.10;99.90;;;;;;5052253;28;20237;-86
2023/12/31 07:14:52;;;;;;;4.60;3.92;;;8.10;99.90;;;;;;5041389;28;20205;-84
2023/12/31 07:17:19;;;;;;;4.28;3.67;;;8.10;99.90;;;;;;5048634;28;20225;-86
2023/12/31 07:19:48;;;;;;;4.40;3.60;;;8.00;99.90;;;;;;5045619;28;20222;-78
2023/12/31 07:22:15;;;;;;;4.53;4.10;;;8.00;99.90;;;;;;5047076;28;20252;-85
2023/12/31 07:24:42;;;;;;;3.63;2.67;;;8.00;99.90;;;;;;5047202;28;20222;-78
2023/12/31 07:27:11;;;;;;;4.15;2.88;;;8.00;99.90;;;;;;5034652;28;20304;-79
2023/12/31 07:29:40;;;;;;;3.30;3.00;;;8.10;99.90;;;;;;5034218;28;20229;-78
2023/12/31 07:32:08;;;;;;;4.57;3.35;;;8.10;99.90;;;;;;5033440;28;20308;-78
2023/12/31 07:34:35;;;;;;;4.53;3.30;;;8.10;99.90;;;;;;5034110;28;20283;-78
2023/12/31 07:37:03;;;;;;;4.13;3.63;;;8.00;99.90;;;;;;5032951;28;20236;-78
2023/12/31 07:39:31;;;;;;;4.78;3.35;;;8.00;99.90;;;;;;5033759;28;20565;-78
2023/12/31 07:41:58;;;;;;;3.88;3.20;;;8.00;99.90;;;;;;5033084;28;20246;-78
2023/12/31 07:44:25;;;;;;;6.25;3.25;;;7.90;99.90;;;;;;5033802;28;20235;-86
2023/12/31 07:46:52;;;;;;;7.80;3.38;;;8.00;99.90;;;;;;5032955;28;20234;-79
2023/12/31 07:49:19;;;;;;;9.23;3.25;;;8.00;99.90;;;;;;5033685;28;20225;-86
2023/12/31 07:51:46;;;;;;;4.57;3.22;;;8.00;99.90;;;;;;5033423;28;20271;-86
2023/12/31 07:54:14;;;;;;;6.97;3.58;;;8.00;99.90;;;;;;5033159;28;20271;-86
2023/12/31 07:56:41;;;;;;;4.35;3.50;;;8.10;99.90;;;;;;5033544;28;20225;-78
2023/12/31 07:59:09;;;;;;;3.08;2.70;;;8.20;99.90;;;;;;5033234;28;20676;-78
2023/12/31 08:01:36;;;;;;;4.60;2.78;;;8.20;99.90;;;;;;5033805;28;20707;-78
2023/12/31 08:04:03;;;;;;;8.32;3.53;;;8.20;99.90;;;;;;5033257;28;20241;-78
2023/12/31 08:06:30;;;;;;;8.70;4.07;;;8.20;99.90;;;;;;5033273;28;20240;-78
2023/12/31 08:08:57;;;;;;;3.22;2.92;;;8.20;99.90;;;;;;5032946;28;20225;-85
2023/12/31 08:11:26;;;;;;;6.55;4.90;;;8.20;99.90;;;;;;5033588;28;20241;-78
2023/12/31 08:13:53;;;;;;;5.55;3.28;;;8.20;99.90;;;;;;5032866;28;20291;-86
2023/12/31 08:16:20;;;;;;;4.75;2.95;;;8.10;99.90;;;;;;5033109;28;20221;-86
2023/12/31 08:18:47;;;;;;;3.00;2.70;;;8.10;99.90;;;;;;5033460;28;20268;-86
2023/12/31 08:21:15;;;;;;;3.88;2.97;;;8.10;99.90;;;;;;5032929;28;20233;-85
2023/12/31 08:23:42;;;;;;;4.80;4.35;;;8.10;99.90;;;;;;5033086;28;20279;-78
2023/12/31 08:26:11;;;;;;;4.80;3.00;;;8.20;99.90;;;;;;5032375;28;20252;-78
2023/12/31 08:28:39;;;;;;;3.40;2.90;;;8.20;99.90;;;;;;5032815;28;20240;-86
2023/12/31 08:31:14;;;;;;;2.60;2.40;;;8.20;99.90;;;;;;5032843;28;20236;-78
2023/12/31 08:33:41;;;;;;;4.95;3.45;;;8.20;99.90;;;;;;5032944;28;20232;-78
2023/12/31 08:36:08;;;;;;;3.63;2.65;;;8.30;99.90;;;;;;5032722;28;20224;-78
2023/12/31 08:38:35;;;;;;;4.38;3.25;;;8.30;99.90;;;;;;5032966;28;20229;-78
2023/12/31 08:41:02;;;;;;;3.05;2.80;;;8.40;99.90;;;;;;5032555;28;20577;-78
2023/12/31 08:43:30;;;;;;;3.75;3.17;;;8.40;99.90;;;;;;5032889;28;20237;-78
2023/12/31 08:45:58;;;;;;;5.25;2.80;;;8.40;99.90;;;;;;5033252;28;20229;-86
2023/12/31 08:48:25;;;;;;;5.53;3.15;;;8.50;99.90;;;;;;5032805;28;20323;-78
2023/12/31 08:50:52;;;;;;;3.22;2.92;;;8.40;99.90;;;;;;5032994;28;20329;-82
2023/12/31 08:53:25;;;;;;;5.95;3.08;;;8.50;99.90;;;;;;5033931;28;20348;-86
2023/12/31 08:55:52;;;;;;;3.72;2.83;;;8.60;99.90;;;;;;5032623;28;20241;-86
2023/12/31 08:58:19;;;;;;;5.70;3.45;;;8.60;99.90;;;;;;5033368;28;20225;-86
2023/12/31 09:00:46;;;;;;;6.82;3.45;;;8.60;99.90;;;;;;5033474;28;20692;-86
2023/12/31 09:03:15;;;;;;;4.13;3.28;;;8.70;99.90;;;;;;5032880;28;20229;-85
2023/12/31 09:05:42;;;;;;;3.55;2.65;;;8.70;99.90;;;;;;5032634;28;20239;-86
2023/12/31 09:08:09;;;;;;;3.78;3.30;;;8.70;99.90;;;;;;5032793;28;20225;-86
2023/12/31 09:10:36;;;;;;;3.97;3.38;;;8.80;99.90;;;;;;5032994;28;20565;-86
2023/12/31 09:13:03;;;;;;;6.63;3.63;;;8.80;99.90;;;;;;5032700;28;20237;-84
2023/12/31 09:15:34;;;;;;;3.95;3.50;;;8.80;99.90;;;;;;5033135;28;20251;-85
2023/12/31 09:18:01;;;;;;;4.40;3.40;;;8.80;99.90;;;;;;5032933;28;20225;-86
2023/12/31 09:20:30;;;;;;;5.60;3.63;;;8.80;99.90;;;;;;5032536;28;20221;-86
2023/12/31 09:22:57;;;;;;;4.88;2.95;;;8.90;99.90;;;;;;5035835;28;20237;-78
2023/12/31 09:25:24;;;;;;;4.03;3.63;;;8.90;99.90;;;;;;5035373;28;20248;-78
2023/12/31 09:27:50;;;;;;;6.10;3.25;;;9.00;99.90;;;;;;5036947;28;20605;-85
2023/12/31 09:30:19;;;;;;;5.20;3.72;;;9.00;99.90;;;;;;5036292;28;20226;-86
2023/12/31 09:32:46;;;;;;;4.75;3.30;;;9.00;99.90;;;;;;5036695;28;20229;-86
2023/12/31 09:35:13;;;;;;;4.70;3.83;;;9.10;99.90;;;;;;5037721;28;20228;-85
2023/12/31 09:37:41;;;;;;;4.38;3.70;;;9.00;99.90;;;;;;5046961;28;20275;-79
2023/12/31 09:40:09;;;;;;;4.30;3.17;;;9.00;99.90;;;;;;5034390;28;20693;-78
2023/12/31 09:42:46;;;;;;;4.78;3.95;;;9.00;99.90;;;;;;5037629;28;20222;-86
2023/12/31 09:45:15;;;;;;;4.10;3.70;;;9.00;99.90;;;;;;5039326;28;20216;-85
2023/12/31 09:47:44;;;;;;;5.38;4.18;;;9.10;99.90;;;;;;5038149;28;20252;-85
2023/12/31 09:50:12;;;;;;;5.20;4.32;;;9.10;99.90;;;;;;5038988;28;20221;-86
2023/12/31 09:52:42;;;;;;;6.88;3.83;;;9.10;99.90;;;;;;5036150;28;20226;-79
2023/12/31 09:55:12;;;;;;;4.65;4.20;;;9.10;99.90;;;;;;5035219;28;20229;-80
2023/12/31 09:57:43;;;;;;;6.18;4.07;;;9.10;99.90;;;;;;5035865;28;20221;-79
2023/12/31 10:00:11;;;;;;;4.65;3.78;;;9.20;99.90;;;;;;5035478;28;20221;-77
2023/12/31 10:02:38;;;;;;;4.15;3.80;;;9.10;99.90;;;;;;5036120;28;20300;-86
2023/12/31 10:05:06;;;;;;;3.45;3.15;;;9.20;99.90;;;;;;5036762;28;20231;-77
2023/12/31 10:07:34;;;;;;;6.57;3.40;;;9.20;99.90;;;;;;5035353;28;20222;-77
2023/12/31 10:10:04;;;;;;;5.97;3.38;;;9.20;99.90;;;;;;5035403;28;20217;-78
2023/12/31 10:12:31;;;;;;;5.13;3.65;;;9.20;99.90;;;;;;5035254;28;20253;-77
2023/12/31 10:14:58;;;;;;;4.60;3.53;;;9.20;99.90;;;;;;5035584;28;20245;-78
2023/12/31 10:17:28;;;;;;;7.40;4.13;;;9.30;99.90;;;;;;5045848;28;20225;-85
2023/12/31 10:19:57;;;;;;;6.63;4.28;;;9.30;99.90;;;;;;5037872;28;20229;-85
2023/12/31 10:22:24;;;;;;;6.13;3.88;;;9.20;99.90;;;;;;5035467;28;20229;-85
2023/12/31 10:24:51;;;;;;;4.90;4.13;;;9.30;99.90;;;;;;5035253;28;20221;-87
2023/12/31 10:27:19;;;;;;;5.70;3.88;;;9.30;99.90;;;;;;5034822;28;20229;-77
2023/12/31 10:29:46;;;;;;;6.25;3.50;;;9.40;99.90;;;;;;5034228;28;20698;-79
2023/12/31 10:32:13;;;;;;;4.13;3.58;;;9.40;99.90;;;;;;5034308;28;20235;-78
2023/12/31 10:34:41;;;;;;;4.78;3.63;;;9.40;99.90;;;;;;5034956;28;20228;-77
2023/12/31 10:37:08;;;;;;;5.65;4.05;;;9.50;99.90;;;;;;5034838;28;20221;-77
2023/12/31 10:39:39;;;;;;;5.80;3.58;;;9.40;99.90;;;;;;5034572;28;20221;-86
2023/12/31 10:42:08;;;;;;;3.33;3.03;;;9.40;99.90;;;;;;5034872;28;20221;-78
2023/12/31 10:47:20;;;;;;;4.28;3.22;;;9.40;99.90;;;;;;5027158;28;20245;-78
2023/12/31 10:49:48;;;;;;;3.83;3.40;;;9.40;99.90;;;;;;5034907;28;20221;-86
2023/12/31 10:52:19;;;;;;;6.32;3.17;;;9.40;99.90;;;;;;5034511;28;20268;-78
2023/12/31 10:54:48;;;;;;;3.20;2.92;;;9.50;99.90;;;;;;5034948;28;20221;-86
2023/12/31 10:57:16;;;;;;;4.60;3.72;;;9.50;99.90;;;;;;5034534;28;20283;-85
2023/12/31 10:59:48;;;;;;;4.38;3.00;;;9.50;99.90;;;;;;5034985;28;20241;-86
2023/12/31 11:02:17;;;;;;;3.55;3.10;;;9.50;99.90;;;;;;5034241;28;20221;-84
2023/12/31 11:04:46;;;;;;;4.75;3.47;;;9.50;99.90;;;;;;5034809;28;20272;-78
2023/12/31 11:07:15;;;;;;;3.95;2.80;;;9.50;99.90;;;;;;5034106;28;20553;-77
2023/12/31 11:09:43;;;;;;;3.40;3.10;;;9.50;99.90;;;;;;5034201;28;20241;-78
2023/12/31 11:12:10;;;;;;;6.50;4.45;;;9.60;99.90;;;;;;5034669;28;20221;-86
2023/12/31 11:14:40;;;;;;;3.95;3.20;;;9.60;99.90;;;;;;5033678;28;20221;-78
2023/12/31 11:17:27;;;;;;;3.85;3.55;;;9.60;99.90;;;;;;5033941;28;20241;-78
2023/12/31 11:20:35;;;;;;;7.50;4.03;;;9.70;99.90;;;;;;5034663;28;20639;-78
2023/12/31 11:23:13;;;;;;;6.45;5.43;;;9.70;99.90;;;;;;5034422;28;20586;-86
2023/12/31 11:25:40;;;;;;;7.80;4.68;;;9.80;99.90;;;;;;5034342;28;20264;-86
2023/12/31 11:28:08;;;;;;;5.53;4.30;;;9.80;99.90;;;;;;5034548;28;20225;-86
2023/12/31 11:30:52;;;;;;;5.43;4.63;;;9.80;99.90;;;;;;5034406;28;20253;-86
2023/12/31 11:33:24;;;;;;;3.58;3.28;;;9.90;99.90;;;;;;5034508;28;20225;-78
2023/12/31 11:35:53;;;;;;;4.60;3.55;;;9.90;99.90;;;;;;5033580;28;20653;-78
2023/12/31 11:38:20;;;;;;;4.97;3.78;;;10.00;99.90;;;;;;5033996;28;20217;-78
2023/12/31 11:40:48;;;;;;;4.88;4.47;;;10.00;99.90;;;;;;5033051;28;20232;-78
2023/12/31 11:43:17;;;;;;;2.97;2.70;;;10.00;99.90;;;;;;5033670;28;20232;-78
2023/12/31 11:45:45;;;;;;;4.18;3.53;;;10.00;99.90;;;;;;5032239;28;20221;-78
2023/12/31 11:48:28;;;;;;;4.38;3.45;;;10.00;99.90;;;;;;5033060;28;20621;-78
2023/12/31 11:50:58;;;;;;;4.40;3.50;;;10.00;99.90;;;;;;5033301;28;20221;-86
2023/12/31 11:53:28;;;;;;;7.70;5.00;;;10.00;99.90;;;;;;5033621;28;20257;-85
2023/12/31 11:56:00;;;;;;;5.47;4.43;;;10.10;99.90;;;;;;5033935;28;20218;-78
2023/12/31 11:58:30;;;;;;;4.93;4.40;;;10.10;99.90;;;;;;5033802;28;20231;-86
2023/12/31 12:00:57;;;;;;;4.38;3.25;;;10.20;99.90;;;;;;5031477;28;20228;-85
2023/12/31 12:03:34;;;;;;;5.72;3.53;;;10.20;99.90;;;;;;5034939;28;20229;-86
2023/12/31 12:06:02;;;;;;;4.15;2.97;;;10.20;99.90;;;;;;5042471;28;20287;-86
2023/12/31 12:08:30;;;;;;;6.25;3.40;;;10.10;99.90;;;;;;5031779;28;20247;-78
2023/12/31 12:11:05;;;;;;;7.18;3.63;;;10.20;99.90;;;;;;5033411;28;20270;-86
2023/12/31 12:13:32;;;;;;;3.08;2.78;;;10.10;99.90;;;;;;5031951;28;20286;-78
2023/12/31 12:16:00;;;;;;;6.35;5.32;;;10.10;99.90;;;;;;5043114;28;20221;-85
2023/12/31 12:18:30;;;;;;;5.43;4.93;;;10.10;99.90;;;;;;5035136;28;20229;-86
2023/12/31 12:20:58;;;;;;;5.35;4.45;;;10.10;99.90;;;;;;5034271;28;20221;-79
2023/12/31 12:23:27;;;;;;;4.15;3.85;;;10.10;99.90;;;;;;5032179;28;20627;-79
2023/12/31 12:25:59;;;;;;;7.30;4.05;;;10.10;99.90;;;;;;5032788;28;20225;-79
2023/12/31 12:28:34;;;;;;;4.63;4.03;;;10.10;99.90;;;;;;5032815;28;20643;-79
2023/12/31 12:31:02;;;;;;;12.50;4.18;;;10.10;99.90;;;;;;5033441;28;20225;-87
2023/12/31 12:33:31;;;;;;;5.93;3.60;;;10.00;99.90;;;;;;5033788;28;20688;-79
2023/12/31 12:36:00;;;;;;;3.80;3.47;;;10.00;99.90;;;;;;5034789;28;20553;-86
2023/12/31 12:38:28;;;;;;;5.65;4.25;;;10.00;99.90;;;;;;5034912;28;20230;-79
2023/12/31 12:41:01;;;;;;;7.30;4.13;;;10.00;99.90;;;;;;5032684;28;20229;-87
2023/12/31 12:43:31;;;;;;;5.00;3.60;;;10.00;99.90;;;;;;5033351;28;20228;-86
2023/12/31 12:46:10;;;;;;;7.72;3.65;;;10.00;99.90;;;;;;5032916;28;20762;-86
2023/12/31 12:48:48;;;;;;;3.92;3.20;;;10.10;99.90;;;;;;5033405;28;20309;-78
2023/12/31 12:51:15;;;;;;;3.40;3.10;;;10.10;99.90;;;;;;5033921;28;20221;-78
2023/12/31 12:53:44;;;;;;;4.72;4.07;;;10.10;99.90;;;;;;5033406;28;20245;-79
2023/12/31 12:56:12;;;;;;;4.85;4.35;;;10.10;99.90;;;;;;5034577;28;20221;-78
2023/12/31 12:58:39;;;;;;;4.63;3.75;;;10.10;99.90;;;;;;5037329;28;20236;-86
2023/12/31 13:01:06;;;;;;;4.28;3.55;;;10.10;99.90;;;;;;5040448;28;20244;-86
2023/12/31 13:03:33;;;;;;;3.97;3.22;;;10.10;99.90;;;;;;5037433;28;20282;-86